createdAt,value
2022-11-18T00:01:10.093Z,99657.16
2022-11-18T00:03:38.205Z,99654.31
2022-11-18T00:06:06.226Z,99648.31
2022-11-18T00:08:34.236Z,99652.50
2022-11-18T00:11:46.314Z,99645.63
2022-11-18T00:14:19.531Z,99645.53
2022-11-18T00:16:50.886Z,99653.41
2022-11-18T00:19:19.501Z,99645.34
2022-11-18T00:21:46.662Z,99654.56
2022-11-18T00:24:13.517Z,99657.91
2022-11-18T00:26:40.387Z,99663.53
2022-11-18T00:29:09.080Z,99672.91
2022-11-18T00:31:35.967Z,99666.34
2022-11-18T00:34:02.833Z,99668.56
2022-11-18T00:36:29.842Z,99674.50
2022-11-18T00:38:56.728Z,99670.41
2022-11-18T00:41:23.774Z,99673.72
2022-11-18T00:43:50.617Z,99669.00
2022-11-18T00:46:17.417Z,99668.78
2022-11-18T00:48:44.344Z,99682.13
2022-11-18T00:51:16.901Z,99686.50
2022-11-18T00:53:44.327Z,99682.25
2022-11-18T00:56:11.544Z,99681.69
2022-11-18T00:58:38.330Z,99675.69
2022-11-18T01:01:05.485Z,99680.66
2022-11-18T01:03:32.549Z,99682.50
2022-11-18T01:05:59.512Z,99678.56
2022-11-18T01:08:26.368Z,99671.56
2022-11-18T01:10:53.770Z,99674.72
2022-11-18T01:13:23.797Z,99669.53
2022-11-18T01:15:55.847Z,99673.78
2022-11-18T01:18:28.224Z,99675.13
2022-11-18T01:21:00.913Z,99672.63
2022-11-18T01:23:27.843Z,99670.84
2022-11-18T01:25:55.195Z,99670.38
2022-11-18T01:28:24.160Z,99669.78
2022-11-18T01:30:51.663Z,99664.94
2022-11-18T01:33:18.544Z,99669.63
2022-11-18T01:35:45.694Z,99661.72
2022-11-18T01:38:14.222Z,99662.38
2022-11-18T01:40:42.066Z,99661.31
2022-11-18T01:43:17.683Z,99662.63
2022-11-18T01:45:46.879Z,99654.69
2022-11-18T01:48:21.361Z,99658.50
2022-11-18T01:50:51.280Z,99652.09
2022-11-18T01:53:25.829Z,99654.50
2022-11-18T01:55:55.720Z,99646.25
2022-11-18T01:58:27.545Z,99652.66
2022-11-18T02:00:54.749Z,99648.28
2022-11-18T02:03:22.628Z,99646.56
2022-11-18T02:05:50.852Z,99641.34
2022-11-18T02:08:19.195Z,99644.22
2022-11-18T02:10:46.036Z,99641.06
2022-11-18T02:13:13.576Z,99641.44
2022-11-18T02:16:15.803Z,99638.09
2022-11-18T02:18:55.340Z,99642.34
2022-11-18T02:21:22.172Z,99642.22
2022-11-18T02:24:01.563Z,99635.50
2022-11-18T02:26:50.215Z,99641.72
2022-11-18T02:29:26.848Z,99640.16
2022-11-18T02:31:56.658Z,99645.75
2022-11-18T02:34:50.801Z,99637.38
2022-11-18T02:38:02.777Z,99650.56
2022-11-18T02:40:34.893Z,99644.13
2022-11-18T02:43:07.533Z,99639.13
2022-11-18T02:45:37.116Z,99640.25
2022-11-18T02:48:09.308Z,99642.69
2022-11-18T02:50:38.640Z,99640.13
2022-11-18T02:53:08.659Z,99646.72
2022-11-18T02:55:38.208Z,99652.22
2022-11-18T02:58:06.392Z,99653.38
2022-11-18T03:00:33.928Z,99659.53
2022-11-18T03:03:00.987Z,99660.94
2022-11-18T03:05:40.228Z,99658.06
2022-11-18T03:26:34.527Z,99652.97
2022-11-18T03:29:08.177Z,99649.38
2022-11-18T03:31:40.776Z,99663.53
2022-11-18T03:34:28.548Z,99658.47
2022-11-18T03:37:01.177Z,99650.19
2022-11-18T03:39:32.600Z,99663.09
2022-11-18T03:42:08.823Z,99670.47
2022-11-18T03:44:39.117Z,99660.94
2022-11-18T03:47:15.017Z,99667.72
2022-11-18T03:49:52.061Z,99663.97
2022-11-18T03:52:23.512Z,99665.47
2022-11-18T03:54:54.591Z,99668.66
2022-11-18T03:57:26.018Z,99669.63
2022-11-18T04:00:03.320Z,99670.97
2022-11-18T04:02:32.031Z,99674.03
2022-11-18T04:05:01.151Z,99668.88
2022-11-18T04:07:36.852Z,99660.09
2022-11-18T04:10:50.336Z,99662.19
2022-11-18T04:13:28.341Z,99666.72
2022-11-18T04:15:55.828Z,99663.16
2022-11-18T04:18:23.099Z,99664.78
2022-11-18T04:20:50.023Z,99669.31
2022-11-18T04:23:16.778Z,99672.53
2022-11-18T04:25:43.649Z,99670.00
2022-11-18T04:28:10.659Z,99665.63
2022-11-18T04:30:37.527Z,99674.84
2022-11-18T04:33:05.239Z,99676.31
2022-11-18T04:35:32.194Z,99683.22
2022-11-18T04:37:58.984Z,99688.06
2022-11-18T04:40:25.841Z,99690.63
2022-11-18T04:42:52.679Z,99690.16
2022-11-18T04:45:19.508Z,99701.72
2022-11-18T04:47:46.399Z,99706.72
2022-11-18T04:50:13.223Z,99701.06
2022-11-18T04:52:40.020Z,99709.25
2022-11-18T04:55:07.087Z,99705.41
2022-11-18T04:57:33.959Z,99713.53
2022-11-18T05:00:00.828Z,99709.34
2022-11-18T05:02:27.607Z,99716.97
2022-11-18T05:04:54.376Z,99716.84
2022-11-18T05:07:21.305Z,99720.53
2022-11-18T05:09:48.132Z,99719.78
2022-11-18T05:12:33.818Z,99719.47
2022-11-18T05:15:00.985Z,99721.25
2022-11-18T05:17:27.921Z,99713.09
2022-11-18T05:19:54.821Z,99729.00
2022-11-18T05:22:21.700Z,99719.53
2022-11-18T05:24:49.175Z,99716.50
2022-11-18T05:27:16.405Z,99716.75
2022-11-18T05:29:43.590Z,99717.56
2022-11-18T05:32:11.010Z,99716.84
2022-11-18T05:34:39.177Z,99718.34
2022-11-18T05:37:06.039Z,99716.09
2022-11-18T05:39:33.903Z,99713.50
2022-11-18T05:42:19.909Z,99723.44
2022-11-18T05:44:47.052Z,99702.34
2022-11-18T05:47:14.095Z,99710.56
2022-11-18T05:49:40.928Z,99714.84
2022-11-18T05:52:07.866Z,99713.97
2022-11-18T05:54:34.839Z,99714.00
2022-11-18T05:57:01.770Z,99713.91
2022-11-18T05:59:28.986Z,99714.53
2022-11-18T06:02:02.047Z,99716.72
2022-11-18T06:04:38.150Z,99720.38
2022-11-18T06:07:13.358Z,99719.91
2022-11-18T06:09:45.083Z,99720.66
2022-11-18T06:12:15.661Z,99723.06
2022-11-18T06:14:48.693Z,99723.03
2022-11-18T06:17:20.579Z,99724.94
2022-11-18T06:19:47.598Z,99727.06
2022-11-18T06:22:14.704Z,99731.34
2022-11-18T06:24:43.476Z,99727.03
2022-11-18T06:27:11.075Z,99735.22
2022-11-18T06:29:37.950Z,99740.81
2022-11-18T06:32:04.885Z,99741.91
2022-11-18T06:34:33.613Z,99735.28
2022-11-18T06:37:18.043Z,99739.41
2022-11-18T06:39:44.886Z,99723.47
2022-11-18T06:42:11.946Z,99718.75
2022-11-18T06:44:38.769Z,99728.28
2022-11-18T06:47:05.816Z,99724.75
2022-11-18T06:49:32.655Z,99722.56
2022-11-18T06:51:59.554Z,99723.25
2022-11-18T06:54:26.441Z,99724.94
2022-11-18T06:56:53.379Z,99718.38
2022-11-18T06:59:23.958Z,99719.94
2022-11-18T07:01:53.446Z,99725.25
2022-11-18T07:04:20.957Z,99722.84
2022-11-18T07:06:47.872Z,99719.94
2022-11-18T07:09:14.919Z,99723.16
2022-11-18T07:11:42.084Z,99712.75
2022-11-18T07:14:09.782Z,99708.16
2022-11-18T07:16:37.079Z,99710.78
2022-11-18T07:19:10.448Z,99701.78
2022-11-18T07:21:38.168Z,99700.47
2022-11-18T07:24:07.772Z,99712.97
2022-11-18T07:26:35.778Z,99710.72
2022-11-18T07:29:02.681Z,99717.34
2022-11-18T07:31:29.577Z,99710.59
2022-11-18T07:33:56.622Z,99707.09
2022-11-18T07:36:29.656Z,99707.97
2022-11-18T07:39:00.965Z,99704.69
2022-11-18T07:41:29.866Z,99714.28
2022-11-18T07:44:00.841Z,99705.81
2022-11-18T07:46:32.111Z,99702.53
2022-11-18T07:49:01.365Z,99698.66
2022-11-18T07:51:30.776Z,99693.94
2022-11-18T07:53:57.702Z,99691.63
2022-11-18T07:56:25.005Z,99691.19
2022-11-18T07:58:56.047Z,99682.88
2022-11-18T08:01:25.507Z,99678.88
2022-11-18T08:03:52.481Z,99683.53
2022-11-18T08:06:19.701Z,99675.41
2022-11-18T08:08:47.320Z,99681.34
2022-11-18T08:11:22.770Z,99683.09
2022-11-18T08:13:51.728Z,99687.03
2022-11-18T08:16:21.215Z,99681.41
2022-11-18T08:18:48.819Z,99688.47
2022-11-18T08:21:17.664Z,99692.06
2022-11-18T08:23:50.074Z,99687.72
2022-11-18T08:26:17.244Z,99701.47
2022-11-18T08:28:44.835Z,99703.09
2022-11-18T08:31:14.192Z,99710.03
2022-11-18T08:33:43.783Z,99702.53
2022-11-18T08:36:15.155Z,99700.88
2022-11-18T08:38:42.148Z,99705.81
2022-11-18T08:41:13.950Z,99711.22
2022-11-18T08:43:40.901Z,99706.84
2022-11-18T08:46:07.700Z,99706.81
2022-11-18T08:48:34.742Z,99709.19
2022-11-18T08:51:02.594Z,99718.19
2022-11-18T08:53:29.580Z,99714.75
2022-11-18T08:56:00.982Z,99707.88
2022-11-18T08:58:28.104Z,99702.47
2022-11-18T09:00:55.437Z,99713.44
2022-11-18T09:03:22.956Z,99696.63
2022-11-18T09:05:50.291Z,99693.31
2022-11-18T09:08:17.206Z,99691.75
2022-11-18T09:10:44.072Z,99701.94
2022-11-18T09:13:53.328Z,99694.88
2022-11-18T09:16:01.934Z,99690.19
2022-11-18T09:18:29.812Z,99693.09
2022-11-18T09:20:58.994Z,99690.06
2022-11-18T09:23:26.048Z,99687.00
2022-11-18T09:26:07.895Z,99678.34
2022-11-18T09:28:35.287Z,99678.09
2022-11-18T09:31:08.108Z,99671.09
2022-11-18T09:33:36.093Z,99668.53
2022-11-18T09:36:02.994Z,99658.03
2022-11-18T09:38:31.084Z,99668.53
2022-11-18T09:41:09.782Z,99656.72
2022-11-18T09:43:55.375Z,99659.34
2022-11-18T09:46:57.139Z,99646.22
2022-11-18T09:49:34.096Z,99650.19
2022-11-18T09:52:27.539Z,99642.44
2022-11-18T09:54:58.422Z,99641.06
2022-11-18T09:57:39.883Z,99633.72
2022-11-18T10:00:24.641Z,99631.63
2022-11-18T10:03:01.906Z,99633.41
2022-11-18T10:05:44.642Z,99625.16
2022-11-18T10:08:35.697Z,99621.28
2022-11-18T10:11:18.172Z,99619.97
2022-11-18T10:13:59.968Z,99621.19
2022-11-18T10:16:33.233Z,99622.47
2022-11-18T10:19:12.409Z,99613.81
2022-11-18T10:21:51.446Z,99610.28
2022-11-18T10:24:30.524Z,99609.44
2022-11-18T10:26:59.515Z,99598.59
2022-11-18T10:29:27.287Z,99595.69
2022-11-18T10:32:13.731Z,99593.94
2022-11-18T10:35:23.021Z,99592.50
2022-11-18T10:38:14.701Z,99593.91
2022-11-18T10:41:15.475Z,99579.66
2022-11-18T10:43:49.624Z,99583.81
2022-11-18T10:46:24.170Z,99588.94
2022-11-18T10:49:09.272Z,99595.69
2022-11-18T10:51:45.188Z,99598.75
2022-11-18T10:54:15.386Z,99594.66
2022-11-18T10:56:58.377Z,99598.28
2022-11-18T10:59:39.094Z,99599.72
2022-11-18T11:02:32.508Z,99601.22
2022-11-18T11:05:02.657Z,99597.38
2022-11-18T11:07:35.265Z,99593.50
2022-11-18T11:10:23.630Z,99582.56
2022-11-18T11:13:00.014Z,99589.44
2022-11-18T11:15:41.806Z,99581.81
2022-11-18T11:18:42.183Z,99583.81
2022-11-18T11:21:17.045Z,99585.59
2022-11-18T11:23:44.828Z,99581.06
2022-11-18T11:29:19.400Z,99563.22
2022-11-18T11:32:29.485Z,99556.31
2022-11-18T11:35:07.384Z,99553.41
2022-11-18T11:37:55.687Z,99559.44
2022-11-18T11:40:34.891Z,99545.13
2022-11-18T11:43:20.600Z,99549.91
2022-11-18T11:46:09.125Z,99555.09
2022-11-18T11:49:05.892Z,99551.69
2022-11-18T11:51:33.445Z,99543.16
2022-11-18T11:54:09.435Z,99535.72
2022-11-18T11:56:50.125Z,99540.84
2022-11-18T11:59:39.799Z,99527.25
2022-11-18T12:02:44.735Z,99530.16
2022-11-18T12:05:40.604Z,99531.38
2022-11-18T12:08:13.713Z,99525.16
2022-11-18T12:11:02.426Z,99517.03
2022-11-18T12:13:53.383Z,99507.22
2022-11-18T12:16:39.053Z,99508.31
2022-11-18T12:19:13.801Z,99500.06
2022-11-18T12:21:46.594Z,99504.31
2022-11-18T12:24:34.341Z,99506.97
2022-11-18T12:27:10.368Z,99505.09
2022-11-18T12:29:49.315Z,99502.97
2022-11-18T12:32:48.719Z,99494.38
2022-11-18T12:35:15.493Z,99493.47
2022-11-18T12:37:51.366Z,99485.72
2022-11-18T12:40:37.920Z,99496.66
2022-11-18T12:43:29.950Z,99497.00
2022-11-18T12:45:58.494Z,99494.44
2022-11-18T12:48:33.311Z,99488.34
2022-11-18T12:51:31.090Z,99486.03
2022-11-18T12:53:58.190Z,99482.00
2022-11-18T12:56:27.944Z,99478.72
2022-11-18T12:58:57.402Z,99480.75
2022-11-18T13:01:29.578Z,99476.75
2022-11-18T13:04:13.610Z,99479.06
2022-11-18T13:06:40.988Z,99467.19
2022-11-18T13:09:30.319Z,99462.41
2022-11-18T13:12:17.036Z,99463.59
2022-11-18T13:15:03.889Z,99464.34
2022-11-18T13:17:53.018Z,99473.00
2022-11-18T13:20:24.678Z,99472.59
2022-11-18T13:23:15.409Z,99479.66
2022-11-18T13:25:45.836Z,99478.53
2022-11-18T13:28:18.380Z,99472.88
2022-11-18T13:31:13.828Z,99476.53
2022-11-18T13:33:40.961Z,99474.13
2022-11-18T13:36:22.960Z,99475.38
2022-11-18T13:38:58.315Z,99476.88
2022-11-18T13:41:32.796Z,99477.63
2022-11-18T13:44:17.892Z,99474.09
2022-11-18T13:46:47.848Z,99483.22
2022-11-18T13:49:19.904Z,99481.09
2022-11-18T13:51:47.350Z,99477.88
2022-11-18T13:54:22.097Z,99478.66
2022-11-18T13:56:48.988Z,99481.25
2022-11-18T13:59:20.176Z,99483.19
2022-11-18T14:01:52.837Z,99481.22
2022-11-18T14:04:25.529Z,99481.66
2022-11-18T14:06:52.464Z,99477.69
2022-11-18T14:09:27.348Z,99471.38
2022-11-18T14:12:20.259Z,99473.69
2022-11-18T14:14:47.932Z,99470.09
2022-11-18T14:17:24.746Z,99479.59
2022-11-18T14:19:54.537Z,99479.28
2022-11-18T14:22:27.144Z,99468.16
2022-11-18T14:25:20.158Z,99470.84
2022-11-18T14:27:51.965Z,99462.81
2022-11-18T14:30:39.957Z,99452.53
2022-11-18T14:33:24.288Z,99453.41
2022-11-18T14:35:55.656Z,99455.44
2022-11-18T14:38:57.513Z,99453.81
2022-11-18T14:41:44.447Z,99441.50
2022-11-18T14:44:13.617Z,99439.94
2022-11-18T14:46:42.677Z,99438.81
2022-11-18T14:49:22.191Z,99444.84
2022-11-18T14:51:50.697Z,99430.22
2022-11-18T14:54:25.573Z,99425.94
2022-11-18T14:57:00.556Z,99431.47
2022-11-18T14:59:27.699Z,99428.53
2022-11-18T15:01:55.013Z,99413.06
2022-11-18T15:04:22.388Z,99408.69
2022-11-18T15:06:49.445Z,99404.75
2022-11-18T15:09:16.816Z,99417.34
2022-11-18T15:27:40.162Z,99417.22
2022-11-18T15:30:07.929Z,99419.75
2022-11-18T15:32:34.810Z,99417.88
2022-11-18T15:35:01.764Z,99422.41
2022-11-18T15:37:28.639Z,99415.34
2022-11-18T15:39:55.550Z,99403.13
2022-11-18T15:42:23.624Z,99411.44
2022-11-18T15:44:50.505Z,99417.50
2022-11-18T15:47:17.407Z,99406.00
2022-11-18T15:49:45.488Z,99404.47
2022-11-18T15:52:12.877Z,99399.66
2022-11-18T15:54:39.789Z,99404.47
2022-11-18T15:57:06.587Z,99398.50
2022-11-18T15:59:33.496Z,99402.91
2022-11-18T16:02:00.269Z,99385.78
2022-11-18T16:04:27.412Z,99388.41
2022-11-18T16:06:54.401Z,99386.53
2022-11-18T16:09:21.788Z,99395.69
2022-11-18T16:12:23.898Z,99406.84
2022-11-18T16:15:10.679Z,99398.13
2022-11-18T16:17:37.675Z,99407.25
2022-11-18T16:20:04.843Z,99400.94
2022-11-18T16:22:32.135Z,99391.72
2022-11-18T16:24:58.974Z,99389.41
2022-11-18T16:27:25.846Z,99390.69
2022-11-18T16:29:52.690Z,99388.81
2022-11-18T16:32:19.609Z,99396.34
2022-11-18T16:34:46.491Z,99408.69
2022-11-18T16:37:13.277Z,99417.78
2022-11-18T16:39:40.118Z,99424.06
2022-11-18T16:42:08.686Z,99414.16
2022-11-18T16:44:37.144Z,99408.22
2022-11-18T16:47:10.538Z,99403.84
2022-11-18T16:49:40.938Z,99401.88
2022-11-18T16:52:08.208Z,99397.06
2022-11-18T16:54:38.242Z,99397.03
2022-11-18T16:57:09.021Z,99403.72
2022-11-18T16:59:35.817Z,99403.75
2022-11-18T17:02:03.208Z,99404.88
2022-11-18T17:04:30.752Z,99400.03
2022-11-18T17:07:01.017Z,99393.19
2022-11-18T17:09:28.107Z,99391.53
2022-11-18T17:11:55.851Z,99388.06
2022-11-18T17:14:23.546Z,99397.97
2022-11-18T17:16:51.195Z,99390.84
2022-11-18T17:19:21.182Z,99390.38
2022-11-18T17:21:48.957Z,99388.41
2022-11-18T17:24:18.389Z,99396.28
2022-11-18T17:26:45.897Z,99388.81
2022-11-18T17:29:13.367Z,99390.91
2022-11-18T17:31:41.510Z,99389.34
2022-11-18T17:34:13.166Z,99392.84
2022-11-18T17:36:40.060Z,99380.16
2022-11-18T17:39:07.397Z,99386.84
2022-11-18T17:42:09.789Z,99385.75
2022-11-18T17:44:36.711Z,99383.84
2022-11-18T17:47:03.732Z,99376.22
2022-11-18T17:49:30.900Z,99384.22
2022-11-18T17:51:57.817Z,99383.34
2022-11-18T17:54:24.632Z,99367.88
2022-11-18T17:56:54.510Z,99375.53
2022-11-18T17:59:23.101Z,99372.31
2022-11-18T18:01:54.453Z,99359.19
2022-11-18T18:04:24.355Z,99365.97
2022-11-18T18:06:52.947Z,99365.25
2022-11-18T18:09:22.871Z,99342.16
2022-11-18T18:11:53.711Z,99346.94
2022-11-18T18:14:21.073Z,99351.72
2022-11-18T18:16:50.236Z,99341.41
2022-11-18T18:19:19.433Z,99343.84
2022-11-18T18:21:46.786Z,99340.78
2022-11-18T18:24:16.497Z,99343.06
2022-11-18T18:26:43.678Z,99345.53
2022-11-18T18:29:11.828Z,99343.56
2022-11-18T18:31:38.820Z,99327.28
2022-11-18T18:34:05.818Z,99341.53
2022-11-18T18:36:33.029Z,99337.16
2022-11-18T18:39:01.031Z,99320.03
2022-11-18T18:41:27.940Z,99329.09
2022-11-18T18:43:54.801Z,99327.06
2022-11-18T18:46:31.414Z,99320.72
2022-11-18T18:49:10.328Z,99337.34
2022-11-18T18:51:45.482Z,99321.84
2022-11-18T18:54:15.764Z,99338.56
2022-11-18T18:56:43.572Z,99320.25
2022-11-18T18:59:11.241Z,99311.50
2022-11-18T19:01:39.062Z,99325.66
2022-11-18T19:04:07.668Z,99310.22
2022-11-18T19:06:58.931Z,99313.41
2022-11-18T19:09:25.043Z,99333.69
2022-11-18T19:12:11.740Z,99329.44
2022-11-18T19:14:38.750Z,99322.69
2022-11-18T19:17:10.588Z,99316.81
2022-11-18T19:19:59.283Z,99320.78
2022-11-18T19:22:28.643Z,99319.28
2022-11-18T19:24:55.878Z,99322.81
2022-11-18T19:27:23.537Z,99337.56
2022-11-18T19:29:50.398Z,99345.06
2022-11-18T19:32:17.365Z,99345.50
2022-11-18T19:34:44.284Z,99357.78
2022-11-18T19:37:11.339Z,99371.94
2022-11-18T19:39:38.688Z,99365.22
2022-11-18T19:42:05.883Z,99371.63
2022-11-18T19:44:32.793Z,99364.94
2022-11-18T19:46:59.677Z,99361.38
2022-11-18T19:49:26.439Z,99363.03
2022-11-18T19:51:53.387Z,99361.03
2022-11-18T19:54:20.888Z,99362.66
2022-11-18T19:56:47.791Z,99350.00
2022-11-18T19:59:14.659Z,99353.31
2022-11-18T20:01:41.865Z,99363.66
2022-11-18T20:04:08.922Z,99357.34
2022-11-18T20:06:37.048Z,99365.72
2022-11-18T20:09:08.003Z,99364.16
2022-11-18T20:11:35.077Z,99361.03
2022-11-18T20:14:02.054Z,99345.53
2022-11-18T20:16:28.938Z,99343.53
2022-11-18T20:18:59.057Z,99347.53
2022-11-18T20:21:27.861Z,99343.66
2022-11-18T20:24:05.181Z,99345.28
2022-11-18T20:26:37.394Z,99334.22
2022-11-18T20:29:06.304Z,99331.84
2022-11-18T20:31:35.540Z,99328.59
2022-11-18T20:34:03.636Z,99318.34
2022-11-18T20:36:36.031Z,99322.38
2022-11-18T20:39:07.683Z,99307.66
2022-11-18T20:41:36.471Z,99286.13
2022-11-18T20:44:04.059Z,99296.09
2022-11-18T20:46:31.221Z,99303.66
2022-11-18T20:48:57.943Z,99295.69
2022-11-18T20:51:29.292Z,99306.88
2022-11-18T20:53:58.669Z,99315.59
2022-11-18T20:56:27.159Z,99320.41
2022-11-18T20:58:55.816Z,99321.63
2022-11-18T21:01:25.531Z,99322.81
2022-11-18T21:03:54.947Z,99320.44
2022-11-18T21:06:24.116Z,99328.78
2022-11-18T21:08:58.709Z,99325.63
2022-11-18T21:11:26.287Z,99334.34
2022-11-18T21:14:11.708Z,99338.72
2022-11-18T21:16:40.452Z,99338.72
2022-11-18T21:19:07.535Z,99333.53
2022-11-18T21:21:48.001Z,99345.06
2022-11-18T21:24:17.571Z,99343.41
2022-11-18T21:26:46.724Z,99346.16
2022-11-18T21:29:15.731Z,99347.31
2022-11-18T21:31:43.903Z,99352.88
2022-11-18T21:34:11.625Z,99360.41
2022-11-18T21:36:45.611Z,99370.00
2022-11-18T21:39:15.012Z,99365.59
2022-11-18T21:41:44.651Z,99362.81
2022-11-18T21:44:13.327Z,99361.63
2022-11-18T21:46:42.714Z,99366.03
2022-11-18T21:49:09.869Z,99366.78
2022-11-18T21:51:37.026Z,99373.59
2022-11-18T21:54:04.533Z,99375.56
2022-11-18T21:56:32.328Z,99369.94
2022-11-18T21:59:01.517Z,99361.91
2022-11-18T22:01:31.149Z,99372.22
2022-11-18T22:03:59.730Z,99372.59
2022-11-18T22:06:29.896Z,99371.75
2022-11-18T22:08:57.955Z,99367.75
2022-11-18T22:11:26.034Z,99372.09
2022-11-18T22:13:53.543Z,99365.75
2022-11-18T22:16:23.315Z,99365.69
2022-11-18T22:18:56.608Z,99361.63
2022-11-18T22:21:26.507Z,99356.06
2022-11-18T22:23:58.024Z,99344.88
2022-11-18T22:26:25.100Z,99354.41
2022-11-18T22:28:57.124Z,99357.66
2022-11-18T22:31:25.795Z,99356.75
2022-11-18T22:33:54.148Z,99351.19
2022-11-18T22:36:23.219Z,99349.56
2022-11-18T22:38:50.693Z,99355.50
2022-11-18T22:41:37.522Z,99350.38
2022-11-18T22:44:08.082Z,99354.69
2022-11-18T22:46:36.180Z,99348.34
2022-11-18T22:49:04.287Z,99346.69
2022-11-18T22:51:31.453Z,99345.88
2022-11-18T22:54:22.955Z,99339.06
2022-11-18T22:56:47.517Z,99339.88
2022-11-18T22:59:19.309Z,99345.06
2022-11-18T23:01:46.354Z,99342.28
2022-11-18T23:04:13.180Z,99339.91
2022-11-18T23:06:40.004Z,99345.84
2022-11-18T23:09:06.795Z,99343.06
2022-11-18T23:11:52.131Z,99343.06
2022-11-18T23:14:18.916Z,99356.50
2022-11-18T23:16:45.964Z,99363.97
2022-11-18T23:19:14.852Z,99367.91
2022-11-18T23:21:42.269Z,99369.47
2022-11-18T23:24:14.331Z,99378.09
2022-11-18T23:26:42.425Z,99372.22
2022-11-18T23:29:10.820Z,99373.78
2022-11-18T23:31:42.953Z,99364.72
2022-11-18T23:34:12.051Z,99365.13
2022-11-18T23:36:39.607Z,99374.25
2022-11-18T23:39:06.685Z,99377.84
2022-11-18T23:41:33.554Z,99375.81
2022-11-18T23:44:00.385Z,99371.00
2022-11-18T23:46:27.828Z,99367.47
2022-11-18T23:48:54.995Z,99382.25
2022-11-18T23:51:24.200Z,99395.75
2022-11-18T23:53:57.574Z,99416.47
2022-11-18T23:56:27.055Z,99406.44
2022-11-18T23:58:55.415Z,99400.56
